Date,TemperatureHighF,TemperatureAvgF,TemperatureLowF,DewpointHighF,DewpointAvgF,DewpointLowF,HumidityHigh,HumidityAvg,HumidityLow,PressureMaxIn,PressureMinIn,WindSpeedMaxMPH,WindSpeedAvgMPH,GustSpeedMaxMPH,PrecipitationSumIn
2013-1-1,38.7,35.6,32.4,37.1,34.3,31.9,99,95,91,30.47,30.30,6,3,15,0.01
2013-1-2,44.9,38.3,33.7,37.8,33.3,30.4,93,82,71,30.30,30.16,5,2,11,0.00
2013-1-3,43.0,36.8,31.5,43.0,33.1,27.6,100,87,64,30.16,30.04,5,2,10,0.18
2013-1-4,46.9,44.8,43.0,46.6,44.6,43.0,100,99,98,30.32,30.14,4,0,10,0.25
2013-1-5,47.0,43.5,40.0,43.7,41.6,39.6,99,93,78,30.17,30.08,5,1,11,0.08
2013-1-6,45.0,42.0,39.2,44.2,41.8,39.0,100,99,94,30.18,29.95,2,0,10,0.34
2013-1-7,49.1,47.0,43.8,49.1,46.7,43.3,100,99,96,30.19,29.88,8,4,23,1.25
2013-1-8,50.0,47.2,42.7,50.0,47.2,42.7,100,100,99,30.19,29.78,9,4,33,1.33
2013-1-9,48.3,40.4,33.5,48.0,39.7,33.2,100,98,89,29.98,29.75,9,1,21,1.08
2013-1-10,40.2,35.7,31.7,39.4,35.4,31.2,100,99,96,30.14,29.97,1,0,6,0.08
2013-1-11,36.8,31.7,28.3,35.0,30.6,27.8,100,96,86,30.33,30.13,1,0,7,0.02
2013-1-12,36.9,31.4,28.3,31.1,28.6,27.1,96,90,71,30.44,30.32,3,0,9,0.00
2013-1-13,37.3,31.4,25.9,32.4,28.8,24.9,97,90,78,30.50,30.43,2,0,6,0.00
2013-1-14,34.7,33.0,31.4,34.2,31.9,29.4,99,95,90,30.56,30.49,2,0,8,0.02
2013-1-15,39.5,34.3,30.2,37.9,33.4,29.5,100,97,91,30.71,30.56,2,0,8,0.00
2013-1-16,40.0,33.0,28.8,36.7,31.9,28.3,99,95,87,30.68,30.48,3,0,9,0.01
2013-1-17,41.8,34.6,30.2,38.8,33.5,29.7,99,96,88,30.49,30.29,3,1,10,0.00
2013-1-18,45.3,33.4,27.6,41.1,32.4,27.1,100,96,85,30.30,30.25,2,0,8,0.01
2013-1-19,46.8,35.9,32.3,38.9,33.9,31.5,99,93,72,30.34,30.27,4,2,12,0.00
2013-1-20,46.8,36.4,30.3,40.8,34.4,29.6,99,93,73,30.36,30.24,3,1,9,0.00
2013-1-21,43.3,34.7,30.9,38.8,33.2,30.4,98,94,82,30.25,30.10,3,1,11,0.00
2013-1-22,42.3,35.8,30.4,37.6,33.0,29.3,97,90,80,30.11,29.92,2,0,8,0.00
2013-1-23,45.0,41.8,37.4,45.0,41.4,35.6,100,98,87,30.17,29.84,5,0,13,0.48
2013-1-24,44.1,39.5,33.9,44.1,39.3,33.6,100,100,98,30.21,30.03,3,1,13,0.27
2013-1-25,47.2,44.5,39.3,46.7,43.9,38.5,100,97,89,30.06,29.91,3,0,11,0.19
2013-1-26,43.3,40.5,38.5,43.3,40.5,38.5,100,100,98,30.07,29.88,3,0,11,0.55
2013-1-27,42.7,40.4,37.3,42.7,40.4,37.3,100,100,100,30.09,30.01,3,0,9,0.43
2013-1-28,44.1,42.6,41.0,44.1,42.4,40.3,100,99,94,30.18,30.08,5,2,18,0.48
2013-1-29,47.1,45.3,44.2,47.1,45.1,44.2,100,99,97,30.43,30.18,6,3,18,0.34
2013-1-30,47.6,46.8,46.4,47.6,46.8,46.4,100,100,100,30.43,30.36,6,3,16,0.44
2013-1-31,47.6,46.3,44.5,47.6,46.3,44.5,100,100,100,30.44,30.33,3,1,12,0.30
2013-2-1,48.3,44.4,41.3,48.3,43.8,41.3,100,98,90,30.40,30.32,6,1,14,0.00
2013-2-2,54.6,44.6,39.2,50.2,42.8,38.4,99,94,84,30.34,30.24,5,2,13,0.00
2013-2-3,48.4,45.7,44.4,46.4,44.6,43.3,99,96,89,30.31,30.23,1,0,7,0.00
2013-2-4,49.6,45.7,43.6,45.9,43.9,42.7,97,93,83,30.24,29.91,2,0,13,0.00
2013-2-5,49.2,46.3,43.1,47.6,44.7,42.1,100,95,87,29.98,29.84,7,2,20,0.41
2013-2-6,45.7,43.4,40.3,45.4,43.0,40.0,100,98,95,30.03,29.76,5,1,19,0.46
2013-2-7,45.2,39.7,32.1,43.9,38.9,31.6,100,97,92,30.21,29.80,7,1,23,0.10
2013-2-8,43.4,35.7,29.8,42.4,35.3,29.6,100,98,95,30.33,30.21,1,0,2,0.01
2013-2-9,46.2,41.6,35.0,45.2,41.2,34.5,100,98,96,30.34,30.27,3,0,8,0.00
2013-2-10,45.4,42.1,37.3,44.6,41.4,37.0,100,97,92,30.39,30.34,0,0,2,0.00
2013-2-11,47.3,44.2,41.8,47.3,43.8,40.8,100,99,95,30.38,30.34,1,0,7,0.08
2013-2-12,47.7,46.1,44.4,47.7,46.1,44.4,100,100,100,30.45,30.37,7,3,18,0.32
2013-2-13,48.6,44.4,40.9,46.1,43.4,40.4,100,96,88,30.52,30.39,3,0,11,0.00
2013-2-14,49.4,45.8,41.7,49.4,45.7,41.4,100,100,99,30.55,30.51,1,0,7,0.09
2013-2-15,53.4,46.7,40.4,50.1,45.7,39.9,100,96,85,30.54,30.19,4,1,14,0.01
2013-2-16,48.6,44.9,41.0,46.7,43.3,38.1,100,94,82,30.27,30.21,6,2,16,0.10
2013-2-17,46.1,41.1,37.3,43.0,39.7,36.6,100,95,87,30.28,30.11,5,1,13,0.17
2013-2-18,44.0,39.7,36.7,42.2,39.0,36.4,100,97,89,30.11,29.73,2,0,8,0.11
2013-2-19,48.3,40.4,33.6,44.6,39.2,33.0,100,96,85,30.02,29.72,2,0,6,0.01
2013-2-20,43.4,38.0,31.6,43.4,37.8,31.1,100,99,97,30.06,29.95,4,0,15,0.19
2013-2-21,45.5,41.4,38.9,45.5,41.0,38.4,100,99,90,30.12,30.04,7,2,23,0.51
2013-2-22,47.4,43.5,38.5,47.4,42.4,36.9,100,96,84,30.11,29.80,10,5,27,1.54
2013-2-23,46.9,42.7,39.0,41.4,39.4,37.9,98,88,76,30.41,29.99,6,2,20,0.06
2013-2-24,44.8,42.2,39.0,44.2,40.9,38.2,99,95,88,30.41,29.93,4,1,24,0.38
2013-2-25,46.6,42.2,37.7,43.6,40.0,36.3,100,92,78,30.35,29.90,10,4,24,0.21
2013-2-26,45.8,40.6,36.7,42.2,39.1,35.5,99,94,82,30.35,30.20,2,0,16,0.13
2013-2-27,47.0,42.4,36.2,46.5,42.2,35.9,100,99,97,30.30,30.22,2,0,6,0.04
2013-2-28,49.5,46.8,42.9,49.5,46.8,42.9,100,100,100,30.35,30.16,5,2,20,1.37
2013-3-1,52.5,49.5,48.3,51.7,49.2,48.3,100,99,96,30.40,30.30,5,2,23,0.03
2013-3-2,49.2,46.2,40.2,48.9,45.5,38.9,100,98,91,30.30,30.16,5,1,19,0.09
2013-3-3,48.4,41.7,34.8,43.6,39.2,33.8,100,91,76,30.33,30.28,2,0,5,0.02
2013-3-4,51.8,41.2,32.5,39.4,35.1,31.7,99,81,48,30.30,29.90,6,2,15,0.00
2013-3-5,43.4,40.9,38.7,43.1,40.2,36.8,100,98,84,29.91,29.70,3,1,8,0.38
2013-3-6,44.0,41.6,40.1,43.7,41.3,39.8,100,99,96,29.91,29.59,4,1,11,0.38
2013-3-7,49.4,43.1,36.8,46.5,42.2,36.3,100,97,83,30.10,29.91,3,0,10,0.09
2013-3-8,50.7,40.5,33.6,46.8,39.1,33.1,100,94,81,30.26,30.08,3,0,10,0.01
2013-3-9,48.5,38.1,30.7,44.4,36.5,30.2,100,94,78,30.53,30.26,2,0,12,0.00
2013-3-10,45.5,41.8,35.3,44.5,41.2,34.5,100,98,96,30.52,30.43,0,0,0,0.04
2013-3-11,49.6,46.2,43.3,48.8,45.8,43.0,100,99,96,30.45,30.20,2,0,10,0.20
2013-3-12,48.6,48.1,47.2,48.6,48.1,47.2,100,100,100,30.19,30.10,6,3,20,1.17
2013-3-13,49.5,48.4,46.6,49.5,48.4,46.6,100,100,100,30.21,30.12,3,1,15,0.46
2013-3-14,49.5,47.5,45.5,48.9,47.3,45.5,100,99,93,30.17,30.07,5,1,21,0.20
2013-3-15,50.2,47.9,46.7,50.0,47.8,46.7,100,100,97,30.25,30.17,4,1,13,0.27
2013-3-16,46.8,44.3,40.3,46.8,43.4,39.0,100,97,85,30.18,30.00,8,3,25,0.30
2013-3-17,45.7,41.7,38.0,40.0,38.2,35.9,98,88,73,30.27,30.08,7,3,19,0.18
2013-3-18,48.7,42.5,34.1,42.2,39.0,33.1,99,88,68,30.28,30.21,6,1,16,0.10
2013-3-19,47.8,42.3,34.0,46.9,39.7,33.0,100,91,70,30.21,29.54,7,2,18,0.74
2013-3-20,49.2,44.9,38.4,49.2,43.2,35.0,100,94,75,30.10,29.39,11,6,29,0.67
2013-3-21,45.4,38.9,34.5,42.3,37.4,33.7,99,94,81,30.29,30.10,7,2,21,0.43
2013-3-22,46.9,38.9,33.3,40.2,35.8,32.8,100,89,66,30.40,30.28,2,0,10,0.03
2013-3-23,45.3,38.9,33.9,40.0,36.3,32.5,97,90,74,30.42,30.31,3,0,11,0.00
2013-3-24,38.7,38.0,37.8,37.1,36.9,36.5,96,96,94,30.31,30.28,0,0,1,0.00
2013-3-25,59.0,49.2,41.4,44.9,39.9,36.1,88,72,49,30.08,29.95,4,1,11,0.00
2013-3-26,52.5,47.5,44.3,49.2,45.7,41.8,97,93,88,30.04,29.99,2,0,8,0.00
2013-3-27,54.5,49.3,45.7,52.3,48.1,45.1,100,96,86,30.01,29.95,1,0,10,0.08
2013-3-28,54.4,49.6,46.7,52.8,48.8,46.1,100,97,89,30.17,30.01,2,0,8,0.15
2013-3-29,54.3,48.7,43.7,53.0,47.6,42.9,100,96,87,30.26,30.17,3,0,10,0.02
2013-3-30,68.9,53.2,40.1,52.9,46.4,39.6,100,78,50,30.25,30.04,3,1,11,0.00
2013-3-31,66.2,52.4,42.6,57.1,46.7,40.1,96,82,57,30.03,29.96,7,1,16,0.00
2013-4-1,54.8,50.5,47.0,48.2,47.3,46.2,97,89,75,30.20,30.03,4,1,18,0.01
2013-4-2,49.8,47.3,45.6,49.0,46.6,44.9,99,97,94,30.24,30.19,4,0,9,0.13
2013-4-3,61.0,51.0,44.6,52.7,47.4,43.4,97,88,70,30.22,29.93,4,0,9,0.00
2013-4-4,54.2,51.7,49.0,53.9,50.1,47.1,99,94,79,29.92,29.63,7,2,25,0.60
2013-4-5,50.4,49.3,47.3,50.1,49.1,47.3,100,99,99,29.77,29.67,6,4,21,1.49
2013-4-6,51.3,47.0,43.0,49.8,46.2,42.6,100,97,88,29.95,29.69,9,2,26,0.76
2013-4-7,47.4,43.5,38.4,46.5,42.7,38.1,100,97,88,29.95,29.53,8,2,22,1.26
2013-4-8,50.1,47.1,41.9,46.5,44.4,40.6,96,90,82,30.31,29.96,4,1,14,0.00
2013-4-9,51.9,46.8,39.8,44.9,42.8,38.9,97,86,72,30.35,30.20,2,0,10,0.00
2013-4-10,50.3,48.5,46.8,49.8,46.6,43.1,100,93,81,30.33,30.01,9,3,28,0.66
2013-4-11,51.0,46.4,37.4,45.0,42.0,35.6,98,85,69,30.36,30.22,3,1,10,0.03
2013-4-12,46.4,41.7,36.8,46.1,40.1,33.5,99,94,81,30.23,29.78,8,1,28,0.45
2013-4-13,49.0,44.0,38.5,45.6,41.1,36.4,97,90,80,30.05,29.89,9,4,26,0.24
2013-4-14,50.8,45.8,40.7,44.2,41.1,38.3,95,83,70,30.05,29.98,4,1,12,0.00
2013-4-15,53.9,44.6,33.9,47.1,41.0,32.9,98,88,64,30.20,29.96,1,0,6,0.00
2013-4-16,55.1,45.6,35.2,49.0,42.6,34.1,99,90,73,30.43,30.20,3,0,10,0.00
2013-4-17,54.0,46.2,39.5,48.9,43.4,38.5,99,90,77,30.51,30.43,3,0,10,0.00
2013-4-18,49.8,46.7,43.1,49.0,45.8,40.0,100,97,87,30.49,30.25,3,1,15,0.94
2013-4-19,50.4,48.8,46.2,50.1,48.6,46.2,100,99,94,30.29,30.10,5,2,13,1.06
2013-4-20,52.4,47.2,44.4,49.1,46.4,43.9,100,97,85,30.35,30.28,5,1,13,0.05
2013-4-21,53.0,47.1,42.4,47.9,44.9,41.7,100,92,79,30.37,30.28,3,0,9,0.05
2013-4-22,62.0,48.2,36.4,49.2,41.9,35.6,99,81,41,30.52,30.37,2,0,8,0.00
2013-4-23,55.4,45.8,35.8,49.3,41.8,33.8,96,87,68,30.43,30.25,2,0,11,0.00
2013-4-24,65.6,50.6,37.4,50.5,43.5,36.1,96,78,45,30.32,30.09,3,0,8,0.00
2013-4-25,55.7,49.0,41.6,51.6,47.0,40.5,99,93,84,30.22,30.06,3,1,11,0.00
2013-4-26,55.6,49.4,44.3,50.4,46.8,43.0,98,91,79,30.31,30.22,1,0,6,0.00
2013-4-27,45.7,45.3,44.2,44.9,44.3,43.1,97,96,94,30.26,30.24,0,0,3,0.00
2013-4-28,54.2,50.0,47.9,50.1,47.5,44.6,100,91,72,30.28,30.01,7,2,22,0.62
2013-4-29,50.5,47.4,42.4,49.2,42.0,38.3,99,81,68,30.25,30.03,5,2,16,0.02
2013-4-30,51.3,46.2,40.9,41.8,39.4,37.3,94,78,60,30.49,30.24,3,1,7,0.02
2013-5-1,62.3,46.3,32.9,49.6,40.5,31.6,98,82,37,30.57,30.49,2,0,9,0.00
2013-5-2,61.2,50.9,41.5,50.8,43.3,35.3,92,76,47,30.54,30.37,2,0,11,0.00
2013-5-3,64.2,50.5,38.6,53.9,46.0,37.3,98,85,60,30.40,30.22,3,0,10,0.00
2013-5-4,80.7,61.5,40.5,52.4,45.2,39.2,99,62,26,30.22,29.97,5,1,14,0.00
2013-5-5,84.1,62.6,47.0,56.0,48.3,37.2,90,65,19,29.97,29.75,3,0,13,0.00
2013-5-6,70.1,54.6,34.4,56.0,49.3,26.6,98,80,57,29.92,29.80,5,1,14,0.29
2013-5-7,56.2,50.9,34.4,51.9,50.0,48.7,97,78,82,30.07,29.92,4,1,13,0.00
2013-5-8,56.8,44.6,34.4,49.5,36.1,31.5,89,5,89,30.21,30.07,2,0,10,0.00
2013-5-9,55.5,26.9,34.4,99.9,46.5,31.5,93,2,83,30.25,30.18,2,0,10,0.00
2013-5-10,158.0,24.1,34.4,50.6,32.9,32.3,94,10,91,30.25,30.19,2,0,8,0.00
2013-5-11,158.0,20.4,34.4,32.6,32.6,32.6,0,0,100,30.25,30.06,4,0,12,0.00
2013-5-12,58.9,51.5,34.4,57.7,50.5,32.6,99,75,93,30.13,30.06,2,1,14,0.40
2013-5-13,55.0,52.8,34.4,54.7,52.0,31.5,100,87,86,30.24,30.00,9,2,28,0.34
2013-5-14,58.1,39.2,34.4,99.9,46.8,27.3,97,31,72,30.24,30.16,2,0,9,0.00
2013-5-15,158.0,38.5,34.4,52.4,39.4,27.3,100,47,85,30.16,30.02,2,0,10,0.14
2013-5-16,58.5,53.4,34.4,58.2,53.8,50.9,100,90,89,30.02,29.95,5,1,18,0.10
2013-5-17,158.0,43.7,34.4,56.2,52.2,49.7,99,63,81,30.09,29.98,6,1,18,0.06
2013-5-18,158.0,44.4,34.4,54.2,51.8,48.6,100,57,94,30.32,30.09,2,0,10,0.17
2013-5-19,55.3,31.6,34.4,52.9,52.9,52.9,0,0,100,30.47,30.32,2,0,8,0.01
2013-5-20,53.3,37.0,34.4,52.9,50.6,46.7,100,25,84,30.41,29.97,2,0,7,0.03
2013-5-21,50.0,47.0,34.4,48.0,45.9,43.0,99,83,81,29.97,29.85,4,1,15,0.15
2013-5-22,50.6,48.3,34.4,49.9,47.4,33.1,99,71,89,29.95,29.88,2,0,7,0.08
2013-5-23,50.4,47.5,44.3,49.4,46.9,43.6,99,97,95,29.98,29.94,1,0,6,0.37
2013-5-24,52.4,38.8,34.4,51.3,41.5,32.9,100,49,92,30.09,29.98,1,0,8,0.00
2013-5-25,52.7,48.8,-90.0,52.4,48.3,-90.3,99,90,96,30.08,29.98,1,0,8,0.46
2013-5-26,56.9,52.4,49.7,55.8,51.9,49.7,100,96,91,30.02,29.95,4,1,13,0.07
2013-5-27,55.9,51.5,-90.0,55.9,51.3,-90.0,100,97,98,29.97,29.68,3,1,14,0.56
2013-5-28,56.3,49.1,34.4,54.0,50.8,32.0,100,78,82,29.93,29.78,4,1,18,0.16
2013-5-29,56.5,50.9,34.4,52.2,49.6,32.6,100,87,83,30.03,29.70,6,1,15,0.08
2013-5-30,55.1,47.1,34.4,99.9,49.3,32.0,100,60,88,30.27,30.03,6,1,19,0.09
2013-5-31,59.3,47.5,34.4,53.1,49.6,29.8,100,50,79,30.37,30.27,1,0,3,0.06
2013-6-1,158.0,35.1,34.4,51.7,38.1,30.1,97,10,84,30.28,30.10,5,0,13,0.00
2013-6-2,158.0,16.2,34.4,30.1,30.1,30.1,0,0,100,30.14,30.09,2,0,11,0.00
2013-6-3,56.4,31.8,34.4,30.1,30.1,30.1,0,0,100,30.17,30.12,2,0,7,0.00
2013-6-4,158.0,16.8,-35.5,54.1,32.5,30.1,91,9,89,30.16,30.07,2,0,10,0.00
2013-6-5,59.7,47.8,34.4,99.9,53.1,33.1,100,31,90,30.16,30.07,2,0,9,0.00
2013-6-6,158.0,17.7,34.4,99.9,38.4,33.1,100,4,87,30.12,30.07,2,0,12,0.00
2013-6-7,158.0,49.6,34.4,57.4,51.8,32.9,98,30,91,30.21,30.09,3,1,10,0.02
2013-6-8,58.9,46.0,34.4,99.9,52.3,28.6,93,50,75,30.22,30.16,2,1,6,0.00
2013-6-9,58.8,50.8,34.4,53.9,50.7,30.9,92,51,78,30.17,30.08,2,1,6,0.00
2013-6-10,58.0,44.4,34.4,99.9,50.5,30.4,93,25,79,30.08,29.99,2,0,8,0.00
2013-6-11,56.8,39.4,34.4,56.5,50.2,32.0,100,40,84,30.15,30.00,3,1,13,0.02
2013-6-12,56.3,48.3,34.4,99.9,52.0,48.5,98,66,86,30.18,30.13,4,1,14,0.17
2013-6-13,59.7,47.0,34.4,99.9,57.2,29.8,100,84,82,30.30,30.16,2,0,8,0.03
2013-6-14,58.2,50.9,34.4,99.9,54.5,48.0,99,58,84,30.29,30.05,2,0,9,0.04
2013-6-15,158.0,34.2,34.4,99.9,55.6,44.9,99,44,83,30.05,29.95,2,0,9,0.01
2013-6-16,158.0,41.0,34.4,60.0,55.7,52.2,98,36,96,30.13,30.05,1,0,6,0.00
2013-6-17,158.0,39.5,0.0,56.3,56.1,54.6,98,30,86,30.13,29.98,4,0,14,0.24
2013-6-18,62.0,43.0,34.4,99.9,45.2,29.2,100,89,79,29.99,29.95,4,1,20,0.01
2013-6-19,51.4,46.8,34.4,50.9,45.8,29.2,98,94,81,30.07,29.96,5,1,15,0.00
2013-6-20,158.0,32.7,34.4,55.3,48.3,33.9,98,48,91,30.16,30.03,2,0,9,0.04
2013-6-21,62.2,48.8,34.4,57.5,46.8,29.5,99,59,79,30.19,30.14,1,0,8,0.13
2013-6-22,158.0,24.7,34.4,51.3,47.0,29.5,98,17,98,30.16,29.86,2,0,9,0.00
2013-6-23,158.0,34.4,34.4,61.7,56.0,51.2,99,51,94,29.86,29.62,2,0,8,0.35
2013-6-24,59.5,44.6,-37.8,59.1,55.8,-38.3,100,53,97,29.70,29.61,4,1,13,0.16
2013-6-25,64.3,53.7,-90.0,60.7,52.9,-90.1,100,93,86,29.83,29.65,3,1,18,0.33
2013-6-26,61.9,57.4,-90.0,61.6,56.7,-90.0,100,97,92,30.06,29.84,3,0,13,0.36
2013-6-27,63.1,60.9,57.9,62.9,60.5,57.3,100,99,97,30.21,30.02,2,0,11,0.15
2013-6-28,75.2,65.0,59.1,70.0,62.8,58.8,100,92,70,30.19,30.09,2,0,8,0.00
2013-6-29,68.3,62.3,34.4,64.6,60.3,30.4,99,92,80,30.13,30.02,1,0,9,0.00
2013-6-30,74.2,63.9,54.1,68.5,61.0,53.3,100,89,72,30.02,29.92,2,0,10,0.00
2013-7-1,65.2,61.1,59.3,61.9,60.0,58.0,100,96,88,30.10,29.97,2,0,9,0.00
2013-7-2,65.7,61.0,57.8,61.3,58.4,56.3,98,91,84,30.16,30.09,2,1,6,0.00
2013-7-3,63.6,59.9,55.5,58.0,56.1,53.3,94,86,79,30.20,30.14,2,1,6,0.00
2013-7-4,63.4,59.8,57.5,58.5,56.1,54.6,92,87,79,30.17,30.09,2,1,6,0.00
2013-7-5,63.2,59.8,57.7,57.7,55.8,54.2,92,86,78,30.09,30.02,2,0,10,0.00
2013-7-6,64.0,58.6,56.2,59.1,55.7,53.7,95,90,81,30.02,29.93,2,0,9,0.00
2013-7-7,60.8,57.9,56.2,57.1,55.2,53.8,95,91,85,30.02,29.95,1,0,9,0.00
2013-7-8,62.7,57.8,55.8,57.7,55.3,53.8,96,91,82,30.14,30.02,0,0,7,0.00
2013-7-9,60.5,56.2,53.8,57.6,55.0,53.5,100,96,89,30.15,30.08,2,0,9,0.00
2013-7-10,59.7,57.3,54.8,54.7,52.9,51.9,94,86,78,30.13,30.05,2,1,5,0.00
2013-7-11,60.8,57.0,53.7,55.8,53.5,52.2,96,88,76,30.12,30.05,1,0,5,0.00
2013-7-12,60.8,55.3,50.7,56.1,52.7,49.1,96,91,82,30.16,30.04,2,0,7,0.00
2013-7-13,63.3,56.4,48.4,57.5,53.4,47.3,98,90,78,30.22,30.14,1,0,5,0.00
2013-7-14,62.2,55.0,46.2,57.5,52.5,45.1,99,91,83,30.17,30.06,2,1,11,0.00
2013-7-15,67.5,58.0,49.1,61.5,54.3,48.0,99,88,72,30.07,29.90,0,0,8,0.00
2013-7-16,72.5,61.0,48.5,62.7,55.7,47.1,98,84,65,29.97,29.78,3,0,12,0.00
2013-7-17,60.3,58.6,58.3,57.7,56.2,56.0,92,92,89,30.23,29.97,3,0,13,0.00
2013-7-18,64.0,59.5,56.1,58.4,55.9,53.9,94,88,80,30.23,30.18,2,0,5,0.00
2013-7-19,56.4,55.9,55.8,55.0,54.4,54.3,95,95,94,30.20,30.13,0,0,4,0.00
2013-7-20,55.8,55.8,55.8,54.4,54.4,54.4,95,95,95,30.13,30.12,0,0,1,0.00
2013-7-21,0.0,0.0,0.0,54.4,54.4,54.4,0,0,100,30.04,30.00,0,0,0,0.00
2013-7-22,0.0,0.0,0.0,54.4,54.4,54.4,0,0,100,30.11,30.01,0,0,0,0.00
2013-7-23,0.0,0.0,0.0,54.4,54.4,54.4,0,0,100,30.11,30.06,0,0,0,0.00
2013-7-24,0.0,0.0,0.0,54.4,54.4,54.4,0,0,100,30.08,30.08,0,0,0,0.00
2013-7-25,0.0,0.0,0.0,54.4,54.4,54.4,0,0,100,30.16,30.09,0,0,0,0.00
2013-7-26,0.0,0.0,0.0,54.4,54.4,54.4,0,0,100,30.22,30.13,0,0,0,0.00
2013-7-27,0.0,0.0,0.0,54.4,54.4,54.4,0,0,100,30.20,30.08,0,0,0,0.00
2013-7-28,0.0,0.0,0.0,54.4,54.4,54.4,0,0,100,30.08,30.02,0,0,0,0.00
2013-7-29,0.0,0.0,0.0,54.4,54.4,54.4,0,0,100,30.06,29.99,0,0,0,0.00
2013-7-30,0.0,0.0,0.0,54.4,54.4,54.4,0,0,100,30.09,30.07,0,0,0,0.00
2013-7-31,0.0,0.0,0.0,54.4,54.4,54.4,0,0,100,30.16,30.08,0,0,0,0.00
2013-8-1,62.4,29.2,0.0,58.6,56.0,54.4,98,45,85,30.11,30.07,12,3,12,0.02
2013-8-2,62.5,59.3,56.9,59.9,58.1,56.6,100,96,89,30.15,30.09,8,4,8,0.02
2013-8-3,65.0,60.1,57.6,61.0,58.1,56.3,97,93,87,30.15,30.08,4,0,4,0.00
2013-8-4,61.1,56.9,54.4,58.8,55.9,53.6,99,96,92,30.09,30.02,10,3,10,0.00
2013-8-5,56.7,54.4,52.1,55.0,53.6,51.8,100,96,93,30.09,30.02,7,0,7,0.00
2013-8-6,58.1,54.3,51.4,56.1,53.6,50.8,99,98,93,30.03,30.00,2,0,6,0.00
2013-8-7,61.6,57.0,51.1,57.5,55.8,50.8,100,95,85,30.09,30.01,6,1,11,0.00
2013-8-8,61.3,57.6,55.3,59.5,56.8,55.3,100,95,89,30.08,30.00,13,1,13,0.00
2013-8-9,59.5,57.1,55.3,58.4,56.4,55.0,100,97,93,30.01,29.93,1,0,7,0.00
2013-8-10,56.5,56.1,55.3,56.2,55.8,55.1,100,99,99,30.00,29.97,0,0,5,0.04
2013-8-11,63.6,60.1,53.6,58.5,56.4,52.3,96,88,79,30.10,30.05,1,0,5,0.00
2013-8-12,63.9,59.0,52.9,58.0,55.8,51.8,99,89,79,30.11,30.06,0,0,6,0.00
2013-8-13,66.8,57.1,47.7,59.6,54.0,46.8,99,89,72,30.13,29.95,1,0,5,0.00
2013-8-14,66.5,57.8,50.7,61.2,56.5,49.6,99,96,78,29.98,29.94,1,0,6,0.33
2013-8-15,63.3,60.6,56.4,62.8,60.2,55.8,100,98,96,30.01,29.94,0,0,5,0.03
2013-8-16,67.9,60.0,34.4,64.6,58.9,34.1,100,91,87,30.06,29.99,2,0,9,0.01
2013-8-17,65.4,60.7,34.4,62.7,59.4,34.1,100,94,83,30.12,30.04,2,0,9,0.01
2013-8-18,95.8,61.0,54.8,95.5,59.7,54.2,100,91,84,30.17,30.10,3,0,9,0.01
2013-8-19,68.0,60.1,53.3,64.2,58.4,52.9,100,94,85,30.15,30.09,2,0,9,0.00
2013-8-20,65.2,59.1,52.5,59.8,56.1,51.6,98,90,80,30.18,30.09,0,0,4,0.00
2013-8-21,68.2,58.1,47.7,60.6,54.5,46.9,100,89,65,30.09,29.94,2,0,6,0.00
2013-8-22,67.3,58.0,48.3,60.8,56.0,47.4,100,93,74,29.95,29.87,3,0,11,0.00
2013-8-23,65.8,60.7,58.0,62.6,59.5,57.7,100,96,82,29.93,29.89,3,0,12,0.02
2013-8-24,65.7,60.0,54.0,61.9,58.9,53.4,100,96,85,29.95,29.90,2,0,9,0.00
2013-8-25,62.9,56.2,49.9,60.8,54.9,49.4,100,95,86,29.96,29.91,1,0,7,0.01
2013-8-26,64.9,56.4,48.4,59.7,55.2,47.9,100,96,74,29.95,29.89,3,0,13,0.03
2013-8-27,65.7,61.2,57.4,64.8,60.7,57.4,100,98,91,29.95,29.83,1,0,7,0.00
2013-8-28,67.5,62.8,60.3,65.6,62.2,60.3,100,98,89,29.92,29.83,2,0,7,0.01
2013-8-29,65.0,62.3,60.9,65.0,62.3,60.9,100,100,100,30.04,29.84,3,1,22,0.14
2013-8-30,65.5,61.7,58.1,63.8,61.2,57.6,100,98,92,30.17,30.05,2,0,9,0.00
2013-8-31,75.6,61.7,53.2,66.3,59.3,53.2,100,93,64,30.09,29.87,2,0,6,0.00
2013-9-1,70.5,61.6,56.9,63.7,59.1,55.8,100,92,66,29.91,29.85,4,0,10,0.00
2013-9-2,70.6,62.5,55.5,64.4,59.3,54.4,98,90,68,29.95,29.87,3,0,12,0.01
2013-9-3,69.7,59.5,51.1,62.9,57.1,50.4,100,92,73,30.03,29.95,3,0,8,0.00
2013-9-4,65.8,59.9,53.4,63.1,58.6,52.8,100,96,89,30.08,30.01,2,0,14,0.00
2013-9-5,64.1,61.4,60.0,63.2,61.1,59.2,100,99,95,30.07,29.94,2,0,8,0.22
2013-9-6,64.1,61.9,60.6,63.0,61.4,60.5,100,99,92,30.12,29.98,4,1,11,0.05
2013-9-7,66.2,61.6,56.4,63.5,60.4,56.4,100,96,88,30.12,30.03,1,0,6,0.02
2013-9-8,64.1,58.4,52.5,62.7,57.9,52.2,100,98,94,30.13,30.06,0,0,6,0.00
2013-9-9,63.5,60.0,57.7,62.3,59.3,57.1,100,98,94,30.09,30.00,1,0,7,0.00
2013-9-10,76.6,64.3,56.8,67.4,61.1,56.6,100,90,67,30.00,29.84,1,0,7,0.00
2013-9-11,72.7,65.1,59.3,66.3,61.6,58.7,98,89,77,30.00,29.84,4,1,14,0.00
2013-9-12,63.1,60.1,57.7,60.9,59.2,57.4,99,97,91,30.02,29.97,1,0,8,0.01
2013-9-13,63.0,61.1,60.1,62.1,60.5,59.4,100,98,96,29.99,29.89,1,0,8,0.00
2013-9-14,64.4,60.5,58.7,62.8,59.9,58.4,100,98,94,29.90,29.76,0,0,4,0.01
2013-9-15,61.3,59.6,58.4,61.3,59.6,58.3,100,100,99,29.84,29.74,3,0,9,0.10
2013-9-16,64.3,60.2,56.3,61.4,59.2,55.1,100,97,87,29.96,29.85,2,0,10,0.05
2013-9-17,63.0,56.9,50.2,59.1,54.9,49.9,100,93,82,29.98,29.89,2,0,11,0.00
2013-9-18,64.8,56.4,49.8,59.0,54.7,49.5,100,94,78,30.09,29.98,2,0,9,0.06
2013-9-19,73.5,59.9,51.9,58.3,53.4,50.4,99,81,51,30.03,29.78,4,1,12,0.00
2013-9-20,63.0,56.8,52.1,60.3,55.3,49.4,100,95,83,29.78,29.62,3,0,9,0.94
2013-9-21,63.0,56.6,52.4,59.6,55.6,52.4,100,97,80,29.73,29.67,2,0,10,0.02
2013-9-22,61.3,56.4,53.6,60.2,55.8,53.3,100,98,91,29.77,29.54,4,1,21,0.90
2013-9-23,60.0,54.4,-90.0,57.4,53.3,-90.1,100,96,80,29.99,29.77,3,0,15,0.68
2013-9-24,54.2,50.4,47.7,54.2,50.3,47.4,100,99,98,29.97,29.86,1,0,5,0.29
2013-9-25,57.3,49.4,42.7,54.4,48.4,42.5,100,97,83,30.05,29.87,1,0,5,0.00
2013-9-26,60.3,50.2,41.0,55.4,48.5,40.7,100,94,77,30.15,30.04,2,0,8,0.00
2013-9-27,59.1,54.7,48.7,59.1,54.4,48.2,100,99,96,30.14,29.85,3,0,12,0.59
2013-9-28,60.7,55.1,50.1,60.7,55.0,34.4,100,100,98,29.85,29.36,9,2,33,1.80
2013-9-29,58.4,52.7,-90.0,58.2,51.9,-90.1,100,97,78,29.55,29.17,11,2,34,1.27
2013-9-30,57.8,51.7,-90.0,54.3,50.0,-90.1,100,94,82,29.92,29.45,8,3,24,0.61
2013-10-1,57.1,51.1,47.3,51.9,49.6,46.9,100,95,73,30.14,29.92,5,1,20,0.44
2013-10-2,49.6,49.3,49.0,49.6,49.1,48.7,100,100,99,30.14,30.13,0,0,2,0.00
2013-11-6,52.1,48.4,46.8,51.0,47.9,47.0,100,98,91,30.23,30.02,5,1,9,0.71
2013-11-7,54.3,49.2,34.4,54.0,43.2,-99.9,100,95,93,30.09,29.76,18,4,30,1.34
2013-11-8,52.9,48.4,41.9,49.0,46.4,41.0,99,93,79,30.18,30.10,7,1,13,0.00
2013-11-9,47.3,43.6,39.1,47.0,43.1,39.0,100,98,96,30.16,30.08,6,1,10,0.01
2013-11-10,53.1,48.0,44.5,49.0,45.6,44.0,98,91,82,30.12,30.07,7,2,16,0.00
2013-11-11,56.9,49.7,44.5,51.0,47.0,44.0,98,90,79,30.14,29.99,7,2,11,0.00
2013-11-12,55.9,52.9,49.6,56.0,52.1,46.0,100,97,75,30.40,30.02,6,1,16,0.33
2013-11-13,54.0,50.7,46.4,54.0,50.5,46.0,100,99,96,30.49,30.36,6,0,13,0.06
2013-11-14,51.0,46.4,41.4,50.0,45.9,41.0,100,98,93,30.36,30.14,2,0,5,0.00
2013-11-15,49.3,45.9,39.6,49.0,45.3,39.0,100,97,87,30.14,29.52,15,4,26,0.01
2013-11-16,48.5,45.8,43.1,44.0,42.4,41.0,98,88,78,29.83,29.52,8,2,15,0.00
2013-11-17,50.4,47.3,43.5,50.0,47.2,43.0,100,99,95,29.95,29.83,9,1,13,0.04
2013-11-18,53.6,50.3,47.2,54.0,50.3,47.0,100,100,100,29.94,29.57,9,2,24,1.52
2013-11-19,50.5,42.2,31.1,51.0,40.1,30.0,100,92,75,30.10,29.65,3,0,6,0.02
2013-11-20,40.6,32.6,27.8,35.0,30.8,27.0,99,93,76,30.52,30.11,2,0,6,0.01
2013-11-21,41.5,35.0,30.4,35.0,31.5,29.0,94,87,74,30.67,30.53,5,1,11,0.00
2013-11-22,45.7,39.0,32.2,34.0,31.3,29.0,88,74,59,30.63,30.41,10,3,15,0.00
2013-11-23,50.5,42.7,37.3,37.0,32.6,29.0,78,68,50,30.41,30.18,6,2,14,0.00
2013-11-24,52.7,42.4,36.5,43.0,36.6,33.0,91,80,64,30.27,30.16,6,1,10,0.00
2013-11-25,50.8,39.8,33.4,45.0,36.9,32.0,98,90,77,30.32,30.26,2,0,5,0.00
2013-11-26,47.0,40.8,34.2,44.0,38.5,33.0,97,91,79,30.27,30.10,3,0,8,0.01
2013-11-27,54.6,46.6,41.5,50.0,44.4,40.0,100,92,76,30.10,29.95,5,1,8,0.15
2013-11-28,51.0,41.8,36.8,47.0,40.0,36.0,100,93,73,30.22,30.04,2,0,6,0.00
2013-11-29,49.1,45.4,38.4,49.0,45.2,38.0,100,99,96,30.37,30.22,5,0,9,0.02
2013-11-30,49.7,47.3,45.2,50.0,47.3,45.0,100,100,99,30.38,30.13,5,1,16,0.33
2013-12-1,52.7,49.4,41.3,53.0,49.3,40.0,100,99,93,30.12,29.92,16,6,29,1.03
2013-12-2,42.7,37.4,31.0,41.0,36.2,31.0,99,95,85,30.09,29.93,10,1,29,0.18
2013-12-3,38.4,32.0,27.4,34.0,30.5,26.0,100,94,79,30.35,30.09,5,1,11,0.01
2013-12-4,36.4,29.4,24.5,30.0,26.5,24.0,98,89,71,30.38,30.34,7,1,12,0.00
2013-12-5,34.9,28.1,22.5,31.0,25.5,22.0,98,90,74,30.36,30.17,5,0,14,0.00
2013-12-6,31.3,28.5,26.0,27.0,20.7,14.0,95,74,53,30.23,30.11,7,2,14,0.00
2013-12-7,30.5,24.9,18.2,17.0,13.7,11.0,85,63,46,30.48,30.23,7,1,14,0.00
2013-12-8,31.8,24.4,16.6,24.0,18.8,14.0,89,79,69,30.61,30.48,2,0,6,0.00
2013-12-9,30.9,28.6,24.9,30.0,26.6,21.0,98,92,78,30.60,30.53,4,0,6,0.00
2013-12-10,34.6,32.7,29.4,34.0,32.5,29.0,100,99,97,30.54,30.44,3,0,6,0.10
2013-12-11,38.9,34.2,31.4,38.0,34.0,31.0,100,99,96,30.44,30.18,3,0,11,0.00
2013-12-12,44.3,39.1,30.3,44.0,38.8,30.0,100,99,93,30.18,30.04,5,1,13,0.26
2013-12-13,47.7,45.2,43.4,48.0,45.2,43.0,100,100,100,30.47,30.17,2,0,9,0.08
2013-12-14,45.3,44.0,40.1,45.0,44.0,40.0,100,100,100,30.47,30.39,2,0,12,0.05
2013-12-15,48.5,46.4,43.4,49.0,46.4,43.0,100,100,100,30.51,30.38,6,1,13,0.54
2013-12-16,44.6,42.3,39.0,45.0,42.3,39.0,100,100,100,30.52,30.28,4,0,11,0.02
2013-12-17,44.5,39.3,35.8,45.0,39.4,36.0,100,100,100,30.28,30.16,2,0,7,0.04
2013-12-18,44.1,39.4,31.7,44.0,39.0,31.0,100,98,88,30.23,30.11,3,0,5,0.00
2013-12-19,37.0,32.2,28.6,35.0,31.3,28.0,100,96,85,30.40,30.24,1,0,4,0.00
2013-12-20,48.0,40.7,32.8,48.0,40.2,31.0,100,98,87,30.23,29.82,8,2,24,0.92
2013-12-21,46.4,45.2,44.6,46.0,45.3,45.0,100,100,100,30.22,29.93,10,2,12,0.19
2013-12-22,48.8,47.7,46.4,49.0,47.7,46.0,100,100,100,30.36,30.20,9,2,12,0.34
2013-12-23,48.9,45.8,37.9,49.0,45.7,38.0,100,99,97,30.58,30.25,12,3,18,0.98
2013-12-24,40.0,36.3,32.3,40.0,36.3,32.0,100,100,99,30.66,30.56,1,0,4,0.00
2013-12-25,41.8,36.6,31.8,42.0,36.6,32.0,100,99,98,30.55,30.42,5,0,8,0.01
2013-12-26,43.9,36.8,32.5,44.0,36.7,33.0,100,99,96,30.43,30.23,2,0,5,0.00
2013-12-27,46.0,39.7,32.7,46.0,39.7,33.0,100,100,99,30.42,30.17,7,0,11,0.18
2013-12-28,41.8,38.3,33.9,42.0,38.3,34.0,100,100,99,30.57,30.43,2,0,4,0.00
2013-12-29,41.8,37.0,32.2,42.0,37.1,32.0,100,100,100,30.52,30.34,1,0,6,0.01
2013-12-30,45.7,42.0,38.3,45.0,41.6,38.0,100,98,95,30.33,30.18,5,1,13,0.01
2013-12-31,46.3,44.6,40.6,46.0,44.6,41.0,100,100,99,30.41,30.22,4,0,8,0.26
2014-1-1,44.3,41.9,38.5,44.0,42.0,39.0,100,100,100,30.41,30.25,6,1,9,0.01
2014-1-2,48.5,44.4,41.0,47.0,44.1,41.0,100,99,88,30.26,30.00,10,1,19,1.20